Silver Cloud — C6MQ5 — position and weather

sailwx.info

Track history (hours):
 
Tides and Currents Weather Stations Pressure Air Temp Water Temp Dewpoint Dewpoint Depression Visibility Wind Speed Wind Dir Waves Ship Positions

Silver Cloud

Operator: V Ships Leisure SAM

Last reported at 2017-Feb-20 17:31 UTC. Time now 2017-Feb-23 02:32 UTC.
Position S 29°26' E 031°40'.

Length 156 m; draft 5.7 m.

Type: Passenger vessel. MMSI: 309027000.

Date/timePositionNaut miles runAvg speedWind from/ knotsBaromVisibWave heightAir tempDewpointWater temp
2017-Feb-20 17:31S 29°26' E 031°40'1717.3
2017-Feb-20 16:34S 29°38' E 031°28'1717.0
2017-Feb-20 15:34S 29°51' E 031°15'1717.4
2017-Feb-20 14:34S 30°05' E 031°02'  
2017-Feb-17 17:30S 34°01' E 018°13'1212.2
2017-Feb-17 16:33S 33°51' E 018°21'5 4.9
2017-Feb-17 15:33S 33°55' E 018°26'0 0.0
2017-Feb-17 14:30S 33°55' E 018°26'0 0.0
2017-Feb-17 13:33S 33°55' E 018°26'0 0.0
2017-Feb-17 12:33S 33°55' E 018°26'0 0.0
2017-Feb-17 11:33S 33°55' E 018°26'0 0.0
2017-Feb-17 10:30S 33°55' E 018°26'0 0.0
2017-Feb-17 09:33S 33°55' E 018°26'0 0.0
2017-Feb-17 08:33S 33°55' E 018°26'0 0.0
2017-Feb-17 07:30S 33°55' E 018°26'0 0.0
2017-Feb-17 06:30S 33°55' E 018°26'0 0.0
2017-Feb-17 05:33S 33°55' E 018°26'0 0.0
2017-Feb-17 04:33S 33°55' E 018°26'5 5.4
2017-Feb-17 03:33S 33°56' E 018°19'1313.2
2017-Feb-17 02:33S 34°08' E 018°13'  
2017-Feb-14 18:25S 30°12' E 031°01'1517.1
2017-Feb-14 17:33S 29°58' E 031°07'7 7.3
2017-Feb-14 16:33S 29°52' E 031°02'0 0.0
2017-Feb-14 15:33S 29°52' E 031°02'0 0.0
2017-Feb-14 14:33S 29°52' E 031°02'0 0.0
2017-Feb-14 13:33S 29°52' E 031°02'0 0.0
2017-Feb-14 12:33S 29°52' E 031°02'0 0.0
2017-Feb-14 11:33S 29°52' E 031°02'0 0.0
2017-Feb-14 10:33S 29°52' E 031°02'0 0.0
2017-Feb-14 09:33S 29°52' E 031°02'0 0.0
2017-Feb-14 08:33S 29°52' E 031°02'0 0.0
2017-Feb-14 07:33S 29°52' E 031°02'0 0.0
2017-Feb-14 06:33S 29°52' E 031°02'0 0.0
2017-Feb-14 05:33S 29°52' E 031°02'8 8.1
2017-Feb-14 04:33S 29°48' E 031°10'1313.1
2017-Feb-14 03:33S 29°39' E 031°21'1312.9
2017-Feb-14 02:33S 29°31' E 031°32'1312.7
2017-Feb-14 01:33S 29°21' E 031°42'1512.6
2017-Feb-14 00:23S 29°11' E 031°54'  
2017-Feb-10 18:11S 29°21' E 031°45'1117.5
2017-Feb-10 17:34S 29°29' E 031°37'  
Track history (hours):
 
Tides and Currents Weather Stations Pressure Air Temp Water Temp Dewpoint Dewpoint Depression Visibility Wind Speed Wind Dir Waves Ship Positions

Silver Cloud

Operator: V Ships Leisure SAM

Last reported at 2017-Feb-20 17:31 UTC. Time now 2017-Feb-23 02:32 UTC.
Position S 29°26' E 031°40'.

Length 156 m; draft 5.7 m.

Type: Passenger vessel. MMSI: 309027000.

Date/timePositionNaut miles runAvg speedWind from/ knotsBaromVisibWave heightAir tempDewpointWater temp
2017-Feb-20 17:31S 29°26' E 031°40'1717.3
2017-Feb-20 16:34S 29°38' E 031°28'1717.0
2017-Feb-20 15:34S 29°51' E 031°15'1717.4
2017-Feb-20 14:34S 30°05' E 031°02'  
2017-Feb-17 17:30S 34°01' E 018°13'1212.2
2017-Feb-17 16:33S 33°51' E 018°21'5 4.9
2017-Feb-17 15:33S 33°55' E 018°26'0 0.0
2017-Feb-17 14:30S 33°55' E 018°26'0 0.0
2017-Feb-17 13:33S 33°55' E 018°26'0 0.0
2017-Feb-17 12:33S 33°55' E 018°26'0 0.0
2017-Feb-17 11:33S 33°55' E 018°26'0 0.0
2017-Feb-17 10:30S 33°55' E 018°26'0 0.0
2017-Feb-17 09:33S 33°55' E 018°26'0 0.0
2017-Feb-17 08:33S 33°55' E 018°26'0 0.0
2017-Feb-17 07:30S 33°55' E 018°26'0 0.0
2017-Feb-17 06:30S 33°55' E 018°26'0 0.0
2017-Feb-17 05:33S 33°55' E 018°26'0 0.0
2017-Feb-17 04:33S 33°55' E 018°26'5 5.4
2017-Feb-17 03:33S 33°56' E 018°19'1313.2
2017-Feb-17 02:33S 34°08' E 018°13'  
2017-Feb-14 18:25S 30°12' E 031°01'1517.1
2017-Feb-14 17:33S 29°58' E 031°07'7 7.3
2017-Feb-14 16:33S 29°52' E 031°02'0 0.0
2017-Feb-14 15:33S 29°52' E 031°02'0 0.0
2017-Feb-14 14:33S 29°52' E 031°02'0 0.0
2017-Feb-14 13:33S 29°52' E 031°02'0 0.0
2017-Feb-14 12:33S 29°52' E 031°02'0 0.0
2017-Feb-14 11:33S 29°52' E 031°02'0 0.0
2017-Feb-14 10:33S 29°52' E 031°02'0 0.0
2017-Feb-14 09:33S 29°52' E 031°02'0 0.0
2017-Feb-14 08:33S 29°52' E 031°02'0 0.0
2017-Feb-14 07:33S 29°52' E 031°02'0 0.0
2017-Feb-14 06:33S 29°52' E 031°02'0 0.0
2017-Feb-14 05:33S 29°52' E 031°02'8 8.1
2017-Feb-14 04:33S 29°48' E 031°10'1313.1
2017-Feb-14 03:33S 29°39' E 031°21'1312.9
2017-Feb-14 02:33S 29°31' E 031°32'1312.7
2017-Feb-14 01:33S 29°21' E 031°42'1512.6
2017-Feb-14 00:23S 29°11' E 031°54'  
2017-Feb-10 18:11S 29°21' E 031°45'1117.5
2017-Feb-10 17:34S 29°29' E 031°37'  

Dump ship's entire track history